Time;durP1;ratioP1;P1;durP2;ratioP2;P2;SDS_P1;SDS_P2;PMS_P1;PMS_P2;Temp;Humidity;BMP_temperature;BMP_pressure;BME280_temperature;BME280_humidity;BME280_pressure;Samples;Min_cycle;Max_cycle;Signal;HPM_P1;HPM_P2
2022/09/16 00:01:58;;;;;;;11.20;7.20;;;;;;;12.12;100.00;97663.48;219118;1281;25256;-79
2022/09/16 00:08:01;;;;;;;;;;;;;;;;;;;;;
2022/09/16 00:14:14;;;;;;;9.90;7.40;;;;;;;12.12;100.00;97672.94;219332;1281;22959;-77
2022/09/16 00:20:21;;;;;;;14.10;7.80;;;;;;;12.14;100.00;97675.45;219128;1282;24314;-79
2022/09/16 00:25:56;;;;;;;14.90;8.40;;;;;;;12.15;100.00;97678.70;219294;1281;22552;-79
2022/09/16 00:31:47;;;;;;;8.80;7.30;;;;;;;12.17;100.00;97689.14;219620;1276;22578;-79
2022/09/16 00:37:45;;;;;;;12.80;7.60;;;;;;;12.19;100.00;97689.52;219875;1278;22674;-78
2022/09/16 00:43:21;;;;;;;;;;;;;;;;;;;;;
2022/09/16 00:49:51;;;;;;;11.30;7.10;;;;;;;12.16;100.00;97694.05;220117;1276;23855;-79
2022/09/16 00:55:36;;;;;;;9.40;7.50;;;;;;;12.12;100.00;97696.61;220047;1278;25377;-78
2022/09/16 01:00:46;;;;;;;12.20;6.90;;;;;;;12.08;100.00;97693.10;220181;1276;22484;-78
2022/09/16 01:06:58;;;;;;;8.80;5.80;;;;;;;12.03;100.00;97689.15;220141;1276;22725;-79
2022/09/16 01:12:20;;;;;;;11.10;6.60;;;;;;;11.97;100.00;97701.11;219800;1277;24233;-79
2022/09/16 01:18:18;;;;;;;9.60;6.30;;;;;;;11.95;100.00;97699.24;219961;1278;22564;-79
2022/09/16 01:24:10;;;;;;;10.20;6.30;;;;;;;11.93;100.00;97694.95;219992;1276;22556;-79
2022/09/16 01:30:19;;;;;;;7.90;5.90;;;;;;;11.91;100.00;97699.45;220201;1276;24266;-80
2022/09/16 01:36:15;;;;;;;8.10;6.40;;;;;;;11.88;100.00;97704.16;219847;1276;22722;-79
2022/09/16 01:41:55;;;;;;;11.50;5.50;;;;;;;11.83;100.00;97696.39;220045;1276;22872;-79
2022/09/16 01:47:47;;;;;;;8.30;5.80;;;;;;;11.78;100.00;97692.59;216134;1276;5389651;-78
2022/09/16 01:53:34;;;;;;;7.30;5.30;;;;;;;11.76;100.00;97681.92;219903;1277;25512;-78
2022/09/16 01:59:37;;;;;;;;;;;;;;;;;;;;;
2022/09/16 02:05:34;;;;;;;9.30;5.90;;;;;;;11.75;100.00;97695.00;220057;1276;25053;-79
2022/09/16 02:11:02;;;;;;;8.20;5.90;;;;;;;11.77;100.00;97695.74;220175;1276;22550;-78
2022/09/16 02:17:09;;;;;;;8.70;5.70;;;;;;;11.77;100.00;97702.07;220022;1276;25347;-79
2022/09/16 02:23:33;;;;;;;8.90;5.00;;;;;;;11.76;100.00;97706.14;220043;1278;22573;-79
2022/09/16 02:29:30;;;;;;;6.70;4.50;;;;;;;11.74;100.00;97705.92;219775;1279;22552;-79
2022/09/16 02:35:35;;;;;;;;;;;;;;;;;;;;;
2022/09/16 02:41:48;;;;;;;;;;;;;;;;;;;;;
2022/09/16 02:47:45;;;;;;;6.60;4.60;;;;;;;11.58;100.00;97718.23;219614;1279;25476;-78
2022/09/16 03:00:55;;;;;;;6.50;3.90;;;;;;;11.32;100.00;97732.55;219183;1279;24324;-78
2022/09/16 03:12:35;;;;;;;5.50;4.20;;;;;;;11.06;100.00;97718.52;220081;1278;25256;-78
2022/09/16 03:19:26;;;;;;;;;;;;;;;;;;;;;
2022/09/16 03:25:06;;;;;;;9.90;4.10;;;;;;;10.76;100.00;97718.20;219197;1281;25372;-80
2022/09/16 03:30:39;;;;;;;5.10;4.10;;;;;;;10.63;100.00;97717.77;219401;1281;22815;-79
2022/09/16 03:36:33;;;;;;;;;;;;;;;;;;;;;
2022/09/16 03:43:35;;;;;;;;;;;;;;;;;;;;;
2022/09/16 03:48:56;;;;;;;6.80;4.90;;;;;;;10.25;100.00;97714.60;218824;1284;23828;-78
2022/09/16 03:54:11;;;;;;;8.10;4.80;;;;;;;10.19;100.00;97705.52;218920;1282;22560;-79
2022/09/16 04:00:27;;;;;;;;;;;;;;;;;;;;;
2022/09/16 04:12:49;;;;;;;8.20;4.60;;;;;;;10.08;100.00;97693.09;219290;1281;24252;-80
2022/09/16 04:18:47;;;;;;;5.90;4.60;;;;;;;10.16;100.00;97699.79;219645;1279;22772;-79
2022/09/16 04:24:19;;;;;;;5.40;3.90;;;;;;;10.26;100.00;97691.40;219744;1278;24345;-79
2022/09/16 04:30:13;;;;;;;5.50;4.10;;;;;;;10.36;100.00;97697.58;220122;1276;23369;-79
2022/09/16 04:36:00;;;;;;;7.20;4.60;;;;;;;10.44;100.00;97698.95;219583;1281;24782;-79
2022/09/16 04:41:39;;;;;;;5.00;4.10;;;;;;;10.48;100.00;97692.52;219828;1279;24247;-79
2022/09/16 04:47:04;;;;;;;5.40;4.10;;;;;;;10.51;100.00;97701.04;219433;1281;22556;-79
2022/09/16 04:52:43;;;;;;;9.60;3.80;;;;;;;10.55;100.00;97693.70;219473;1281;22582;-78
2022/09/16 04:58:09;;;;;;;;;;;;;;;;;;;;;
2022/09/16 05:03:50;;;;;;;;;;;;;;;;;;;;;
2022/09/16 05:09:14;;;;;;;5.80;4.40;;;;;;;10.71;100.00;97691.42;220122;1276;22566;-80
2022/09/16 05:14:26;;;;;;;10.60;5.30;;;;;;;10.82;100.00;97703.75;219993;1275;23636;-78
2022/09/16 05:20:27;;;;;;;11.60;7.20;;;;;;;10.97;100.00;97712.54;219986;1277;22733;-80
2022/09/16 05:26:29;;;;;;;8.70;5.40;;;;;;;11.20;100.00;97708.66;220185;1276;22590;-80
2022/09/16 05:32:27;;;;;;;8.40;5.30;;;;;;;11.42;100.00;97711.67;220080;1276;22580;-79
2022/09/16 05:38:09;;;;;;;8.90;5.70;;;;;;;11.66;100.00;97708.27;219894;1278;22564;-80
2022/09/16 05:44:05;;;;;;;7.60;5.90;;;;;;;11.87;100.00;97709.35;220055;1276;22585;-78
2022/09/16 05:49:19;;;;;;;9.40;5.90;;;;;;;12.10;100.00;97706.45;220251;1278;23804;-78
2022/09/16 05:55:47;;;;;;;6.80;5.80;;;;;;;12.42;100.00;97692.23;220236;1277;22567;-78
2022/09/16 06:01:26;;;;;;;8.60;6.40;;;;;;;12.76;100.00;97712.59;220298;1276;22686;-79
2022/09/16 06:07:09;;;;;;;9.30;6.90;;;;;;;12.92;100.00;97727.27;220626;1276;22581;-81
2022/09/16 06:12:49;;;;;;;6.80;5.20;;;;;;;12.92;100.00;97728.71;220529;1278;22595;-77
2022/09/16 06:18:15;;;;;;;8.20;6.70;;;;;;;12.91;100.00;97730.77;220133;1277;22584;-79
2022/09/16 06:23:49;;;;;;;8.20;6.20;;;;;;;13.01;100.00;97714.54;220282;1276;22572;-78
2022/09/16 06:29:33;;;;;;;8.50;5.70;;;;;;;13.14;100.00;97709.54;220471;1278;22566;-79
2022/09/16 06:35:20;;;;;;;9.20;6.50;;;;;;;13.26;100.00;97714.02;220325;1278;22544;-80
2022/09/16 06:41:08;;;;;;;;;;;;;;;;;;;;;
2022/09/16 06:46:46;;;;;;;6.60;5.70;;;;;;;13.51;99.70;97712.65;220493;1278;22715;-77
2022/09/16 06:52:15;;;;;;;7.50;6.60;;;;;;;13.70;99.91;97708.58;221741;1276;25426;-79
2022/09/16 06:57:47;;;;;;;7.00;5.10;;;;;;;13.95;99.64;97704.68;220086;1278;22559;-79
2022/09/16 07:03:54;;;;;;;6.90;4.80;;;;;;;14.14;98.86;97712.90;220586;1277;22592;-80
2022/09/16 07:09:43;;;;;;;6.80;5.40;;;;;;;14.20;97.27;97723.84;220278;1277;24166;-78
2022/09/16 07:15:32;;;;;;;6.60;4.60;;;;;;;14.27;96.92;97726.98;219908;1277;25262;-79
2022/09/16 07:21:27;;;;;;;6.30;4.90;;;;;;;14.46;96.92;97728.47;220427;1278;24316;-78
2022/09/16 07:26:55;;;;;;;;;;;;;;;;;;;;;
2022/09/16 07:32:29;;;;;;;5.20;4.70;;;;;;;14.83;95.51;97743.00;220597;1278;23030;-77
2022/09/16 07:38:59;;;;;;;;;;;;;;;;;;;;;
2022/09/16 07:45:21;;;;;;;7.90;4.00;;;;;;;14.91;93.26;97747.53;220658;1277;24239;-79
2022/09/16 07:51:44;;;;;;;8.60;4.70;;;;;;;14.94;93.14;97756.02;220541;1277;22538;-80
2022/09/16 07:57:33;;;;;;;5.60;5.00;;;;;;;14.89;92.71;97758.25;221577;1278;22548;-81
2022/09/16 08:03:45;;;;;;;6.00;3.90;;;;;;;15.04;92.58;97765.31;221504;1277;22572;-82
2022/09/16 08:09:54;;;;;;;4.70;3.80;;;;;;;15.08;91.82;97770.73;220439;1278;22573;-79
2022/09/16 08:16:01;;;;;;;4.10;3.70;;;;;;;15.01;90.77;97769.14;220214;1277;22692;-80
2022/09/16 08:22:22;;;;;;;4.50;3.70;;;;;;;15.18;91.46;97771.31;221554;1278;22576;-78
2022/09/16 08:27:57;;;;;;;4.80;4.10;;;;;;;15.43;89.70;97772.30;220523;1277;22653;-78
2022/09/16 08:33:39;;;;;;;4.10;3.60;;;;;;;15.90;89.33;97761.70;220368;1278;22543;-79
2022/09/16 08:39:14;;;;;;;4.90;3.60;;;;;;;16.41;87.94;97756.50;220434;1277;22643;-78
2022/09/16 08:45:03;;;;;;;4.60;3.90;;;;;;;16.78;87.89;97761.96;220286;1278;22552;-75
2022/09/16 08:50:22;;;;;;;;;;;;;;;16.93;86.90;97764.08;220443;1277;24332;-78
2022/09/16 08:55:47;;;;;;;8.70;4.20;;;;;;;16.87;86.35;97766.40;220364;1277;24294;-79
2022/09/16 09:01:59;;;;;;;6.30;3.40;;;;;;;16.77;85.68;97766.10;220299;1277;22576;-79
2022/09/16 09:08:12;;;;;;;5.30;4.10;;;;;;;16.74;84.10;97764.73;220882;1277;24236;-78
2022/09/16 09:14:03;;;;;;;4.70;3.80;;;;;;;16.54;83.33;97770.63;220332;1276;25328;-78
2022/09/16 09:20:23;;;;;;;6.90;3.90;;;;;;;16.48;84.16;97772.97;220555;1276;22566;-79
2022/09/16 09:26:08;;;;;;;7.10;3.80;;;;;;;16.54;82.58;97777.05;220535;1277;24840;-79
2022/09/16 09:32:21;;;;;;;6.00;4.10;;;;;;;16.60;82.37;97774.16;220403;1277;22580;-79
2022/09/16 09:38:43;;;;;;;4.00;3.00;;;;;;;16.96;82.30;97763.04;220152;1277;25263;-79
2022/09/16 09:44:21;;;;;;;3.60;3.30;;;;;;;17.28;81.03;97764.00;220169;1277;22633;-79
2022/09/16 09:49:56;;;;;;;4.60;2.80;;;;;;;17.56;81.45;97761.64;220577;1278;22637;-79
2022/09/16 09:55:42;;;;;;;3.50;3.20;;;;;;;17.80;80.23;97763.15;219815;1277;22892;-78
2022/09/16 10:01:22;;;;;;;2.90;2.60;;;;;;;17.93;79.58;97755.02;220412;1277;22541;-79
2022/09/16 10:06:55;;;;;;;4.60;3.50;;;;;;;17.93;77.06;97747.14;220331;1277;22581;-78
2022/09/16 10:12:55;;;;;;;4.70;3.00;;;;;;;17.45;76.69;97746.81;220453;1276;22538;-78
2022/09/16 10:18:19;;;;;;;3.60;3.20;;;;;;;17.00;77.24;97749.37;220770;1277;22684;-79
2022/09/16 10:23:30;;;;;;;4.00;3.50;;;;;;;16.65;76.73;97749.92;220325;1277;26452;-78
2022/09/16 10:29:16;;;;;;;;;;;;;;;;;;;;;
2022/09/16 10:35:05;;;;;;;3.50;3.10;;;;;;;16.41;77.92;97749.64;220477;1277;22560;-77
2022/09/16 10:40:27;;;;;;;3.70;2.00;;;;;;;16.62;78.05;97739.98;220070;1277;22592;-78
2022/09/16 10:45:56;;;;;;;2.70;2.10;;;;;;;16.86;78.07;97733.01;220114;1277;22551;-76
2022/09/16 10:51:23;;;;;;;1.90;1.60;;;;;;;17.15;77.84;97733.13;220381;1277;22544;-77
2022/09/16 11:03:52;;;;;;;;;;;;;;;;;;;;;
2022/09/16 11:16:06;;;;;;;;;;;;;;;;;;;;;
2022/09/16 11:22:12;;;;;;;1.40;1.30;;;;;;;17.73;70.00;97708.47;220562;1277;23286;-77
2022/09/16 11:27:23;;;;;;;2.90;1.40;;;;;;;17.77;70.02;97701.65;220861;1277;22565;-78
2022/09/16 11:32:48;;;;;;;1.50;1.40;;;;;;;17.90;69.48;97691.73;220233;1277;22737;-78
2022/09/16 11:38:52;;;;;;;2.80;2.30;;;;;;;18.07;69.54;97687.05;220507;1277;22791;-79
2022/09/16 11:44:56;;;;;;;2.90;1.90;;;;;;;18.20;67.56;97684.23;220202;1277;24402;-78
2022/09/16 11:50:41;;;;;;;5.60;2.10;;;;;;;18.25;68.23;97680.10;219437;1282;25266;-79
2022/09/16 11:56:20;;;;;;;2.80;1.80;;;;;;;18.51;67.17;97682.86;219537;1284;22563;-79
2022/09/16 12:02:25;;;;;;;5.20;2.30;;;;;;;18.46;66.61;97677.29;219395;1282;22563;-78
2022/09/16 12:08:49;;;;;;;7.40;2.00;;;;;;;17.95;67.26;97676.02;219962;1277;24445;-78
2022/09/16 12:14:28;;;;;;;2.20;1.80;;;;;;;17.58;66.61;97671.31;220326;1276;25320;-78
2022/09/16 12:20:49;;;;;;;2.70;1.80;;;;;;;17.19;66.56;97678.92;220471;1277;23362;-78
2022/09/16 12:26:53;;;;;;;3.00;1.60;;;;;;;17.06;68.35;97665.86;220177;1278;22963;-80
2022/09/16 12:33:06;;;;;;;1.90;1.60;;;;;;;17.11;68.42;97663.15;219979;1277;23039;-79
2022/09/16 12:38:40;;;;;;;3.00;2.40;;;;;;;17.15;68.76;97668.86;220614;1277;22896;-78
2022/09/16 12:44:46;;;;;;;1.80;1.70;;;;;;;17.22;68.67;97661.67;220202;1277;22572;-79
2022/09/16 12:51:24;;;;;;;3.00;1.70;;;;;;;17.42;68.21;97660.38;221812;1277;22606;-79
2022/09/16 12:57:34;;;;;;;2.30;1.70;;;;;;;17.70;67.38;97645.14;218448;1285;22596;-79
2022/09/16 13:02:51;;;;;;;2.20;1.40;;;;;;;17.74;66.86;97646.96;220043;1276;24451;-79
2022/09/16 13:08:29;;;;;;;2.80;1.60;;;;;;;17.57;67.32;97653.27;220401;1276;24265;-79
2022/09/16 13:14:00;;;;;;;5.80;4.80;;;;;;;17.61;68.72;97649.25;220470;1276;24322;-79
2022/09/16 13:19:27;;;;;;;2.40;1.90;;;;;;;17.71;69.31;97655.83;220476;1276;22706;-79
2022/09/16 13:25:07;;;;;;;4.00;2.70;;;;;;;17.70;69.28;97654.04;220468;1276;23840;-78
2022/09/16 13:30:15;;;;;;;2.90;1.90;;;;;;;17.58;68.36;97657.64;221281;1276;25429;-78
2022/09/16 13:35:44;;;;;;;2.60;2.00;;;;;;;17.37;68.03;97659.83;221535;1277;23063;-79
2022/09/16 13:41:13;;;;;;;3.00;2.20;;;;;;;17.26;69.52;97667.67;220254;1278;25329;-79
2022/09/16 13:46:38;;;;;;;2.30;1.60;;;;;;;17.20;70.52;97666.96;220504;1276;25165;-79
2022/09/16 13:51:49;;;;;;;1.80;1.70;;;;;;;17.15;71.44;97662.07;219282;1276;23490;-78
2022/09/16 13:57:44;;;;;;;1.70;1.60;;;;;;;17.03;71.93;97661.24;220601;1276;22670;-77
2022/09/16 14:03:21;;;;;;;3.00;1.80;;;;;;;16.90;72.43;97662.92;220244;1276;26032;-79
2022/09/16 14:09:47;;;;;;;1.90;1.40;;;;;;;16.80;73.09;97652.35;220318;1277;23377;-78
2022/09/16 14:15:39;;;;;;;2.20;2.00;;;;;;;16.69;73.63;97642.55;220048;1276;25437;-79
2022/09/16 14:21:25;;;;;;;2.20;1.80;;;;;;;16.63;74.02;97637.71;220254;1276;22712;-79
2022/09/16 14:27:59;;;;;;;2.80;2.00;;;;;;;16.59;74.57;97633.40;220145;1276;24167;-78
2022/09/16 14:34:13;;;;;;;;;;;;;;;;;;;;;
2022/09/16 14:39:25;;;;;;;2.40;2.20;;;;;;;16.59;75.20;97624.13;220099;1276;22565;-79
2022/09/16 14:45:32;;;;;;;5.00;2.00;;;;;;;16.55;75.12;97618.05;220066;1276;23842;-78
2022/09/16 14:57:25;;;;;;;2.20;2.00;;;;;;;16.34;75.27;97617.61;220174;1276;23224;-78
2022/09/16 15:02:48;;;;;;;2.20;2.00;;;;;;;16.28;75.37;97617.64;220142;1276;22598;-80
2022/09/16 15:15:21;;;;;;;3.10;2.80;;;;;;;16.16;75.47;97624.95;219652;1280;22599;-78
2022/09/16 15:21:08;;;;;;;2.50;1.90;;;;;;;16.12;76.06;97621.23;219649;1281;24750;-79
2022/09/16 15:26:21;;;;;;;1.70;1.60;;;;;;;16.14;76.13;97615.11;219454;1281;22769;-79
2022/09/16 15:32:35;;;;;;;2.50;2.20;;;;;;;16.08;75.90;97610.03;219737;1276;22582;-79
2022/09/16 15:38:27;;;;;;;2.50;2.30;;;;;;;16.01;75.81;97607.64;220201;1276;24266;-80
2022/09/16 15:43:44;;;;;;;;;;;;;;;15.91;76.08;97603.42;219190;1284;22586;-79
2022/09/16 15:49:49;;;;;;;5.60;3.70;;;;;;;15.85;76.48;97597.27;219352;1282;22729;-79
2022/09/16 15:55:44;;;;;;;2.40;2.00;;;;;;;15.77;76.98;97592.91;219255;1284;25430;-79
2022/09/16 16:01:45;;;;;;;2.50;2.30;;;;;;;15.67;77.08;97600.37;218892;1282;22570;-81
2022/09/16 16:08:01;;;;;;;3.00;2.20;;;;;;;15.56;77.44;97599.83;218951;1282;24247;-79
2022/09/16 16:13:37;;;;;;;5.50;2.50;;;;;;;15.46;77.25;97598.73;219816;1278;22822;-78
2022/09/16 16:18:58;;;;;;;2.70;1.90;;;;;;;15.38;77.16;97599.26;219314;1281;24299;-78
2022/09/16 16:24:14;;;;;;;4.00;1.80;;;;;;;15.29;77.39;97603.67;219513;1282;22999;-79
2022/09/16 16:29:22;;;;;;;3.70;2.70;;;;;;;15.12;77.44;97598.08;219369;1281;22601;-80
2022/09/16 16:34:26;;;;;;;3.50;2.80;;;;;;;14.94;77.81;97591.77;219452;1281;25612;-80
2022/09/16 16:39:34;;;;;;;6.00;3.80;;;;;;;14.77;78.17;97597.23;220522;1280;22617;-79
2022/09/16 16:45:20;;;;;;;14.30;9.20;;;;;;;14.66;78.70;97595.58;220013;1276;23236;-78
2022/09/16 16:51:18;;;;;;;11.70;8.80;;;;;;;14.55;79.17;97594.16;220135;1276;23449;-78
2022/09/16 16:57:11;;;;;;;10.40;7.70;;;;;;;14.35;79.64;97595.32;220133;1277;24868;-77
2022/09/16 17:03:22;;;;;;;8.20;5.50;;;;;;;14.16;79.99;97593.67;219961;1277;22674;-80
2022/09/16 17:09:14;;;;;;;5.90;3.60;;;;;;;13.93;80.61;97586.32;220209;1276;24965;-78
2022/09/16 17:15:35;;;;;;;;;;;;;;;;;;;;;
2022/09/16 17:21:35;;;;;;;7.50;5.00;;;;;;;13.62;81.73;97594.00;220197;1276;25540;-78
2022/09/16 17:27:50;;;;;;;;;;;;;;;;;;;;;
2022/09/16 17:33:46;;;;;;;6.50;3.80;;;;;;;13.34;82.85;97595.89;219992;1277;22579;-80
2022/09/16 17:45:48;;;;;;;4.70;3.40;;;;;;;13.13;83.86;97597.95;220209;1276;22554;-79
2022/09/16 17:50:58;;;;;;;7.90;5.00;;;;;;;13.01;84.55;97603.84;220029;1276;22566;-79
2022/09/16 17:56:20;;;;;;;7.90;4.40;;;;;;;12.88;85.15;97612.33;219865;1276;22548;-79
2022/09/16 18:01:33;;;;;;;6.70;4.40;;;;;;;12.78;85.48;97613.98;220174;1276;26432;-79
2022/09/16 18:07:02;;;;;;;6.70;4.60;;;;;;;12.71;85.76;97620.41;219450;1281;25530;-79
2022/09/16 18:12:04;;;;;;;11.30;6.00;;;;;;;12.67;86.21;97623.27;219498;1280;22730;-78
2022/09/16 18:17:37;;;;;;;9.20;5.70;;;;;;;12.67;86.58;97630.04;219620;1281;24664;-79
2022/09/16 18:22:47;;;;;;;7.70;4.50;;;;;;;12.65;86.70;97625.15;219412;1281;22570;-78
2022/09/16 18:28:05;;;;;;;5.60;4.10;;;;;;;12.62;86.98;97639.79;219198;1281;22610;-78
2022/09/16 18:33:25;;;;;;;8.40;6.10;;;;;;;12.59;86.98;97650.09;219073;1281;25274;-79
2022/09/16 18:38:32;;;;;;;8.40;5.20;;;;;;;12.51;87.18;97647.96;219761;1278;22572;-79
2022/09/16 18:43:43;;;;;;;7.80;4.90;;;;;;;12.37;87.48;97654.60;219893;1276;24196;-78
2022/09/16 18:49:14;;;;;;;10.70;6.10;;;;;;;12.21;87.76;97652.00;220094;1276;25547;-78
2022/09/16 18:55:21;;;;;;;;;;;;;;;;;;;;;
2022/09/16 19:01:17;;;;;;;12.00;7.50;;;;;;;11.91;88.58;97657.58;218632;1284;22590;-78
2022/09/16 19:06:20;;;;;;;11.40;7.40;;;;;;;11.85;88.96;97657.69;218718;1284;22584;-79
2022/09/16 19:11:23;;;;;;;13.60;6.90;;;;;;;11.84;89.25;97657.23;218909;1283;22639;-79
2022/09/16 19:16:26;;;;;;;10.00;7.30;;;;;;;11.83;89.35;97656.64;219105;1282;22738;-80
2022/09/16 19:21:28;;;;;;;9.80;6.20;;;;;;;11.81;89.69;97654.22;219055;1284;24240;-80
2022/09/16 19:26:42;;;;;;;11.80;6.90;;;;;;;11.81;90.10;97650.23;219924;1276;22600;-78
2022/09/16 19:31:57;;;;;;;10.70;6.80;;;;;;;11.82;90.28;97650.42;219965;1276;24221;-79
2022/09/16 19:37:00;;;;;;;12.20;7.70;;;;;;;11.80;90.58;97652.95;219856;1278;22579;-78
2022/09/16 19:42:12;;;;;;;12.60;6.30;;;;;;;11.78;90.62;97653.34;221249;1276;24224;-78
2022/09/16 19:47:20;;;;;;;10.30;6.00;;;;;;;11.77;90.66;97652.22;220115;1276;25384;-80
2022/09/16 19:52:22;;;;;;;11.10;6.70;;;;;;;11.69;90.94;97653.36;219742;1278;22593;-79
2022/09/16 19:57:38;;;;;;;10.00;6.00;;;;;;;11.57;91.07;97652.94;220221;1276;22541;-79
2022/09/16 20:02:52;;;;;;;;;;;;;;;;;;;;;
2022/09/16 20:08:06;;;;;;;9.80;6.10;;;;;;;11.33;91.40;97658.35;220017;1279;23802;-78
2022/09/16 20:14:22;;;;;;;;;;;;;;;;;;;;;
2022/09/16 20:20:18;;;;;;;9.20;6.70;;;;;;;11.04;91.79;97653.64;219869;1277;22663;-79
2022/09/16 20:25:35;;;;;;;10.70;6.80;;;;;;;10.91;92.01;97654.16;220225;1276;22594;-78
2022/09/16 20:31:11;;;;;;;7.50;5.80;;;;;;;10.77;92.01;97656.41;219950;1279;25465;-78
2022/09/16 20:36:25;;;;;;;15.30;8.10;;;;;;;10.65;92.41;97655.36;219899;1278;22549;-78
2022/09/16 20:42:20;;;;;;;;;;;;;;;;;;;;;
2022/09/16 20:47:35;;;;;;;11.80;6.40;;;;;;;10.40;93.15;97665.05;219544;1281;22550;-78
2022/09/16 20:53:54;;;;;;;;;;;;;;;;;;;;;
2022/09/16 20:59:47;;;;;;;14.20;8.70;;;;;;;10.03;93.65;97667.83;218793;1284;22897;-77
2022/09/16 21:05:40;;;;;;;10.60;7.30;;;;;;;9.93;94.55;97661.14;218977;1284;24346;-79
2022/09/16 21:11:22;;;;;;;14.10;8.40;;;;;;;9.86;95.25;97665.15;219479;1281;22747;-78
2022/09/16 21:17:18;;;;;;;;;;;;;;;;;;;;;
2022/09/16 21:29:31;;;;;;;11.20;6.50;;;;;;;9.62;95.70;97661.52;218949;1284;22768;-78
2022/09/16 21:35:22;;;;;;;;;;;;;;;;;;;;;
2022/09/16 21:41:41;;;;;;;10.40;6.90;;;;;;;9.46;96.45;97677.13;219174;1281;24303;-79
2022/09/16 21:53:36;;;;;;;8.90;5.80;;;;;;;9.34;97.20;97681.33;218164;1284;24247;-77
2022/09/16 21:58:59;;;;;;;8.10;5.80;;;;;;;9.32;97.36;97678.39;218808;1284;24247;-78
2022/09/16 22:04:30;;;;;;;9.30;6.20;;;;;;;9.30;97.41;97684.79;218443;1284;22861;-79
2022/09/16 22:10:44;;;;;;;8.30;5.80;;;;;;;9.26;97.55;97686.35;218879;1284;22557;-78
2022/09/16 22:17:12;;;;;;;10.80;7.10;;;;;;;9.21;97.33;97689.25;218916;1282;24321;-78
2022/09/16 22:22:56;;;;;;;;;;;;;;;;;;;;;
2022/09/16 22:29:10;;;;;;;9.10;6.00;;;;;;;9.11;97.82;97685.31;219241;1282;26866;-79
2022/09/16 22:35:32;;;;;;;10.40;6.00;;;;;;;9.13;98.34;97678.70;219446;1281;23535;-78
2022/09/16 22:48:12;;;;;;;8.40;5.60;;;;;;;9.12;98.38;97685.10;219209;1282;22718;-79
2022/09/16 22:53:46;;;;;;;11.10;5.60;;;;;;;9.12;98.37;97683.75;219386;1281;22582;-79
2022/09/16 23:00:06;;;;;;;9.20;5.50;;;;;;;9.08;98.13;97679.82;218846;1284;24270;-78
2022/09/16 23:05:14;;;;;;;7.30;5.30;;;;;;;9.01;97.84;97672.31;219434;1282;22648;-78
2022/09/16 23:11:10;;;;;;;8.50;5.40;;;;;;;8.92;97.88;97667.35;219348;1281;24319;-78
2022/09/16 23:17:36;;;;;;;;;;;;;;;;;;;;;
2022/09/16 23:23:25;;;;;;;;;;;;;;;;;;;;;
2022/09/16 23:42:10;;;;;;;8.60;5.70;;;;;;;8.54;98.46;97666.78;220282;1277;22723;-79
2022/09/16 23:48:41;;;;;;;9.50;5.80;;;;;;;8.47;98.65;97671.04;220116;1277;22584;-79
2022/09/16 23:54:56;;;;;;;9.10;5.80;;;;;;;8.38;98.52;97670.04;219844;1277;22707;-78
